Time;durP1;ratioP1;P1;durP2;ratioP2;P2;SDS_P1;SDS_P2;PMS_P1;PMS_P2;Temp;Humidity;BMP_temperature;BMP_pressure;BME280_temperature;BME280_humidity;BME280_pressure;Samples;Min_cycle;Max_cycle;Signal;HPM_P1;HPM_P2
2022/04/13 00:01:20;;;;;;;11.73;6.53;;;;;;;;;;5053892;28;20088;-74
2022/04/13 00:03:46;;;;;;;11.45;6.47;;;;;;;;;;5053731;28;20451;-75
2022/04/13 00:06:15;;;;;;;15.55;6.60;;;;;;;;;;5053927;28;20060;-74
2022/04/13 00:08:43;;;;;;;12.45;6.57;;;;;;;;;;5053595;28;20053;-74
2022/04/13 00:11:10;;;;;;;9.45;6.93;;;;;;;;;;5054127;28;20045;-74
2022/04/13 00:13:36;;;;;;;11.95;6.78;;;;;;;;;;5053542;28;20533;-73
2022/04/13 00:16:03;;;;;;;15.88;7.70;;;;;;;;;;5053903;28;20048;-74
2022/04/13 00:18:30;;;;;;;16.35;7.85;;;;;;;;;;5053615;28;20505;-74
2022/04/13 00:20:56;;;;;;;15.38;8.27;;;;;;;;;;5053749;28;20083;-74
2022/04/13 00:23:22;;;;;;;14.38;8.32;;;;;;;;;;5053766;28;20412;-73
2022/04/13 00:25:49;;;;;;;17.75;9.25;;;;;;;;;;5053517;28;20128;-74
2022/04/13 00:28:16;;;;;;;11.70;8.07;;;;;;;;;;5053270;28;20049;-74
2022/04/13 00:30:43;;;;;;;15.40;9.35;;;;;;;;;;5053600;28;20046;-74
2022/04/13 00:33:10;;;;;;;17.33;8.57;;;;;;;;;;5052072;28;20037;-73
2022/04/13 00:35:37;;;;;;;12.35;7.65;;;;;;;;;;5053655;28;20088;-74
2022/04/13 00:38:04;;;;;;;;;;;;;;;;;;5053893;28;20146;-74
2022/04/13 00:40:30;;;;;;;13.18;8.43;;;;;;;;;;5051960;28;19968;-74
2022/04/13 00:42:57;;;;;;;15.68;8.80;;;;;;;;;;5052970;28;20393;-74
2022/04/13 00:45:24;;;;;;;14.85;9.20;;;;;;;;;;5053210;28;20156;-74
2022/04/13 00:47:50;;;;;;;14.75;9.25;;;;;;;;;;5052843;28;20092;-74
2022/04/13 00:50:19;;;;;;;14.63;9.02;;;;;;;;;;5053192;28;20164;-74
2022/04/13 00:52:47;;;;;;;12.85;8.15;;;;;;;;;;5053129;28;20072;-74
2022/04/13 00:55:14;;;;;;;14.18;8.50;;;;;;;;;;5053083;28;20076;-74
2022/04/13 00:57:41;;;;;;;12.48;8.57;;;;;;;;;;5052992;28;20421;-74
2022/04/13 01:00:11;;;;;;;12.13;8.27;;;;;;;;;;5053023;28;20098;-74
2022/04/13 01:02:38;;;;;;;13.60;8.90;;;;;;;;;;5052967;28;20102;-74
2022/04/13 01:05:06;;;;;;;16.50;8.70;;;;;;;;;;5052820;28;20057;-74
2022/04/13 01:07:32;;;;;;;;;;;;;;;;;;5053179;28;20045;-74
2022/04/13 01:10:02;;;;;;;12.30;7.43;;;;;;;;;;5051922;28;19975;-74
2022/04/13 01:12:28;;;;;;;14.10;9.18;;;;;;;;;;5051215;28;20087;-74
2022/04/13 01:14:54;;;;;;;15.13;9.07;;;;;;;;;;5052555;28;20052;-74
2022/04/13 01:17:22;;;;;;;16.77;8.68;;;;;;;;;;5052620;28;20504;-74
2022/04/13 01:19:49;;;;;;;15.93;9.45;;;;;;;;;;5052652;28;20115;-74
2022/04/13 01:22:19;;;;;;;15.02;9.85;;;;;;;;;;5052570;28;20084;-76
2022/04/13 01:24:46;;;;;;;16.95;9.80;;;;;;;;;;5052535;28;20501;-77
2022/04/13 01:27:14;;;;;;;15.13;10.60;;;;;;;;;;5050966;28;20081;-76
2022/04/13 01:29:42;;;;;;;17.45;9.88;;;;;;;;;;5052490;28;20086;-76
2022/04/13 01:32:09;;;;;;;15.90;9.65;;;;;;;;;;5052343;28;20095;-76
2022/04/13 01:34:36;;;;;;;14.13;8.88;;;;;;;;;;5052545;28;20049;-77
2022/04/13 01:37:03;;;;;;;20.60;9.60;;;;;;;;;;5052354;28;20045;-77
2022/04/13 01:39:29;;;;;;;16.50;8.70;;;;;;;;;;5052125;28;20053;-76
2022/04/13 01:41:56;;;;;;;16.23;8.63;;;;;;;;;;5052372;28;20281;-77
2022/04/13 01:44:22;;;;;;;14.27;9.18;;;;;;;;;;5051891;28;20512;-76
2022/04/13 01:46:49;;;;;;;14.70;9.55;;;;;;;;;;5051307;28;20052;-77
2022/04/13 01:49:15;;;;;;;16.65;9.80;;;;;;;;;;5051290;28;20049;-76
2022/04/13 01:51:41;;;;;;;12.57;8.52;;;;;;;;;;5051209;28;20084;-76
2022/04/13 01:54:08;;;;;;;15.95;9.00;;;;;;;;;;5049963;28;20126;-76
2022/04/13 01:56:34;;;;;;;13.25;8.90;;;;;;;;;;5050991;28;20076;-76
2022/04/13 01:59:01;;;;;;;14.30;8.98;;;;;;;;;;5051224;28;20129;-76
2022/04/13 02:01:29;;;;;;;13.60;8.30;;;;;;;;;;5050933;28;20084;-77
2022/04/13 02:03:55;;;;;;;;;;;;;;;;;;5051244;28;20048;-78
2022/04/13 02:06:22;;;;;;;17.90;9.32;;;;;;;;;;5050882;28;20396;-77
2022/04/13 02:08:48;;;;;;;15.48;8.18;;;;;;;;;;5050840;28;20076;-77
2022/04/13 02:11:15;;;;;;;13.48;9.02;;;;;;;;;;5051486;28;20077;-77
2022/04/13 02:13:41;;;;;;;19.92;10.27;;;;;;;;;;5050727;28;20127;-76
2022/04/13 02:16:08;;;;;;;16.67;9.60;;;;;;;;;;5050854;28;20076;-77
2022/04/13 02:18:35;;;;;;;14.00;8.83;;;;;;;;;;5051092;28;20071;-77
2022/04/13 02:21:01;;;;;;;20.08;9.43;;;;;;;;;;5049585;28;20490;-77
2022/04/13 02:23:28;;;;;;;13.32;9.63;;;;;;;;;;5050793;28;20107;-77
2022/04/13 02:25:54;;;;;;;16.70;9.15;;;;;;;;;;5050711;28;20098;-77
2022/04/13 02:28:21;;;;;;;17.35;9.10;;;;;;;;;;5050495;28;20136;-77
2022/04/13 02:30:47;;;;;;;18.33;9.57;;;;;;;;;;5049250;28;20077;-76
2022/04/13 02:33:14;;;;;;;17.25;9.10;;;;;;;;;;5050521;28;20080;-76
2022/04/13 02:35:40;;;;;;;18.08;9.02;;;;;;;;;;5050432;28;20546;-76
2022/04/13 02:38:07;;;;;;;15.48;9.23;;;;;;;;;;5050500;28;20041;-76
2022/04/13 02:40:33;;;;;;;12.13;8.40;;;;;;;;;;5050901;28;20095;-76
2022/04/13 02:43:00;;;;;;;15.93;8.48;;;;;;;;;;5050308;28;20044;-76
2022/04/13 02:45:27;;;;;;;14.13;8.43;;;;;;;;;;5050682;28;20045;-76
2022/04/13 02:47:54;;;;;;;14.55;8.68;;;;;;;;;;5010040;28;1143789;-76
2022/04/13 02:50:20;;;;;;;13.70;7.82;;;;;;;;;;5051120;28;20049;-76
2022/04/13 02:52:47;;;;;;;17.05;7.78;;;;;;;;;;5051476;28;20049;-76
2022/04/13 02:55:13;;;;;;;13.98;8.48;;;;;;;;;;5051125;28;20488;-76
2022/04/13 02:57:39;;;;;;;12.95;7.50;;;;;;;;;;5051352;28;20107;-76
2022/04/13 03:00:06;;;;;;;14.68;7.72;;;;;;;;;;5051098;28;20555;-76
2022/04/13 03:02:32;;;;;;;14.07;7.30;;;;;;;;;;5051361;28;20053;-77
2022/04/13 03:04:59;;;;;;;15.40;8.38;;;;;;;;;;5049986;28;20135;-77
2022/04/13 03:07:29;;;;;;;14.35;8.07;;;;;;;;;;5044875;28;20072;-76
2022/04/13 03:09:56;;;;;;;11.30;7.15;;;;;;;;;;5050915;28;20543;-77
2022/04/13 03:12:23;;;;;;;11.00;7.22;;;;;;;;;;5051234;28;20084;-76
2022/04/13 03:14:50;;;;;;;16.20;7.40;;;;;;;;;;5050932;28;20132;-76
2022/04/13 03:17:17;;;;;;;14.38;7.15;;;;;;;;;;5051219;28;20083;-77
2022/04/13 03:19:43;;;;;;;13.15;7.07;;;;;;;;;;5049702;28;20508;-77
2022/04/13 03:22:10;;;;;;;13.63;6.38;;;;;;;;;;5051205;28;20076;-77
2022/04/13 03:24:42;;;;;;;18.15;7.20;;;;;;;;;;5050869;28;20053;-77
2022/04/13 03:27:08;;;;;;;15.15;6.35;;;;;;;;;;5050796;28;20100;-77
2022/04/13 03:29:35;;;;;;;15.07;6.47;;;;;;;;;;5051046;28;20089;-77
2022/04/13 03:32:01;;;;;;;18.90;7.60;;;;;;;;;;5052143;28;20144;-77
2022/04/13 03:34:29;;;;;;;11.77;6.57;;;;;;;;;;5054401;28;20049;-77
2022/04/13 03:36:57;;;;;;;14.38;6.88;;;;;;;;;;5054740;28;20099;-77
2022/04/13 03:39:24;;;;;;;12.57;7.10;;;;;;;;;;5050505;28;20107;-77
2022/04/13 03:41:50;;;;;;;16.23;7.28;;;;;;;;;;5044444;28;20084;-76
2022/04/13 03:44:17;;;;;;;12.48;6.47;;;;;;;;;;5054321;28;20076;-76
2022/04/13 03:46:44;;;;;;;12.37;7.20;;;;;;;;;;5054016;28;20566;-76
2022/04/13 03:49:10;;;;;;;12.77;6.45;;;;;;;;;;5040331;28;20647;-76
2022/04/13 03:51:37;;;;;;;14.55;6.13;;;;;;;;;;5025230;28;20195;-76
2022/04/13 03:54:03;;;;;;;9.95;6.20;;;;;;;;;;5054034;28;20501;-77
2022/04/13 03:56:30;;;;;;;11.65;6.75;;;;;;;;;;5054190;28;20049;-76
2022/04/13 03:58:57;;;;;;;12.02;6.05;;;;;;;;;;5054497;28;20080;-77
2022/04/13 04:01:23;;;;;;;15.60;6.87;;;;;;;;;;5053898;28;20086;-76
2022/04/13 04:03:50;;;;;;;15.23;6.97;;;;;;;;;;5053932;28;20099;-76
2022/04/13 04:06:16;;;;;;;16.10;7.13;;;;;;;;;;5052470;28;20076;-76
2022/04/13 04:08:42;;;;;;;17.10;7.57;;;;;;;;;;5054003;28;20088;-76
2022/04/13 04:11:09;;;;;;;13.27;6.05;;;;;;;;;;5052914;28;20084;-76
2022/04/13 04:13:36;;;;;;;12.48;6.75;;;;;;;;;;5054032;28;20084;-76
2022/04/13 04:16:03;;;;;;;19.75;6.53;;;;;;;;;;5053734;28;20055;-76
2022/04/13 04:18:30;;;;;;;14.63;6.40;;;;;;;;;;5053856;28;20114;-76
2022/04/13 04:20:56;;;;;;;11.90;6.18;;;;;;;;;;5053837;28;20441;-76
2022/04/13 04:23:23;;;;;;;16.05;6.57;;;;;;;;;;5052568;28;20140;-76
2022/04/13 04:25:49;;;;;;;13.50;6.45;;;;;;;;;;5053688;28;20575;-76
2022/04/13 04:28:16;;;;;;;13.15;6.97;;;;;;;;;;5053630;28;20081;-75
2022/04/13 04:30:42;;;;;;;14.95;6.45;;;;;;;;;;5053468;28;20560;-74
2022/04/13 04:33:12;;;;;;;11.38;6.45;;;;;;;;;;5053411;28;20041;-75
2022/04/13 04:35:39;;;;;;;14.35;7.35;;;;;;;;;;5053198;28;20543;-74
2022/04/13 04:38:05;;;;;;;16.33;7.30;;;;;;;;;;5053507;28;20401;-75
2022/04/13 04:40:32;;;;;;;11.38;6.97;;;;;;;;;;5052043;28;20195;-75
2022/04/13 04:42:58;;;;;;;15.18;7.70;;;;;;;;;;5052266;28;20080;-75
2022/04/13 04:45:25;;;;;;;16.45;8.35;;;;;;;;;;5052889;28;20531;-75
2022/04/13 04:47:53;;;;;;;13.70;8.10;;;;;;;;;;5052997;28;20057;-75
2022/04/13 04:50:20;;;;;;;17.48;8.80;;;;;;;;;;5053127;28;20492;-75
2022/04/13 04:52:47;;;;;;;13.60;8.68;;;;;;;;;;5052753;28;20045;-75
2022/04/13 04:55:16;;;;;;;15.73;9.18;;;;;;;;;;5053209;28;20140;-75
2022/04/13 04:57:43;;;;;;;19.88;9.73;;;;;;;;;;5053038;28;20045;-76
2022/04/13 05:00:11;;;;;;;16.07;9.77;;;;;;;;;;5052811;28;20053;-75
2022/04/13 05:02:37;;;;;;;18.92;9.77;;;;;;;;;;5052640;28;20071;-76
2022/04/13 05:05:05;;;;;;;15.30;9.27;;;;;;;;;;5052721;28;20055;-75
2022/04/13 05:07:32;;;;;;;19.30;8.98;;;;;;;;;;5052984;28;20049;-75
2022/04/13 05:09:58;;;;;;;18.48;9.52;;;;;;;;;;5052481;28;20150;-75
2022/04/13 05:12:25;;;;;;;13.98;8.95;;;;;;;;;;5052816;28;20084;-75
2022/04/13 05:14:54;;;;;;;16.83;9.82;;;;;;;;;;5052807;28;20397;-75
2022/04/13 05:17:24;;;;;;;14.00;8.35;;;;;;;;;;5052655;28;20103;-75
2022/04/13 05:19:50;;;;;;;12.63;8.55;;;;;;;;;;5052385;28;20057;-75
2022/04/13 05:22:17;;;;;;;18.80;9.48;;;;;;;;;;5052484;28;20118;-76
2022/04/13 05:24:43;;;;;;;16.02;8.93;;;;;;;;;;5052433;28;20057;-76
2022/04/13 05:27:10;;;;;;;16.38;9.48;;;;;;;;;;5052510;28;20474;-77
2022/04/13 05:29:36;;;;;;;17.60;9.60;;;;;;;;;;5052156;28;20107;-76
2022/04/13 05:32:03;;;;;;;14.35;8.50;;;;;;;;;;5052420;28;20087;-76
2022/04/13 05:34:31;;;;;;;20.05;9.23;;;;;;;;;;5052350;28;20099;-76
2022/04/13 05:36:58;;;;;;;13.95;7.60;;;;;;;;;;5052554;28;20132;-76
2022/04/13 05:39:25;;;;;;;15.80;8.05;;;;;;;;;;5050909;28;20072;-76
2022/04/13 05:41:51;;;;;;;16.58;8.40;;;;;;;;;;5052114;28;20103;-76
2022/04/13 05:44:18;;;;;;;10.75;7.68;;;;;;;;;;5051972;28;20067;-76
2022/04/13 05:46:44;;;;;;;14.23;9.18;;;;;;;;;;5052044;28;20101;-76
2022/04/13 05:49:11;;;;;;;13.57;7.80;;;;;;;;;;5052082;28;20080;-76
2022/04/13 05:51:37;;;;;;;13.38;7.78;;;;;;;;;;5051829;28;20496;-76
2022/04/13 05:54:04;;;;;;;15.50;8.65;;;;;;;;;;5051559;28;20072;-76
2022/04/13 05:56:30;;;;;;;12.68;7.85;;;;;;;;;;5051892;28;20067;-76
2022/04/13 05:58:57;;;;;;;16.90;8.68;;;;;;;;;;5051914;28;20076;-76
2022/04/13 06:01:23;;;;;;;16.02;8.05;;;;;;;;;;5050613;28;20087;-76
2022/04/13 06:03:49;;;;;;;13.10;7.82;;;;;;;;;;5051950;28;20085;-76
2022/04/13 06:06:16;;;;;;;16.65;7.57;;;;;;;;;;5051943;28;20072;-77
2022/04/13 06:08:43;;;;;;;12.77;7.25;;;;;;;;;;5051849;28;20095;-77
2022/04/13 06:11:09;;;;;;;15.50;7.47;;;;;;;;;;5051543;28;20083;-81
2022/04/13 06:13:36;;;;;;;13.82;8.18;;;;;;;;;;5051875;28;20049;-77
2022/04/13 06:16:02;;;;;;;10.88;7.25;;;;;;;;;;5047801;28;20041;-77
2022/04/13 06:18:29;;;;;;;12.40;7.53;;;;;;;;;;5051804;28;20052;-77
2022/04/13 06:20:56;;;;;;;12.27;7.68;;;;;;;;;;5050482;28;20092;-84
2022/04/13 06:23:22;;;;;;;11.30;6.70;;;;;;;;;;5028711;28;20046;-86
2022/04/13 06:25:48;;;;;;;10.90;6.75;;;;;;;;;;5031398;28;20386;-86
2022/04/13 06:28:15;;;;;;;15.32;7.47;;;;;;;;;;5031218;28;20073;-84
2022/04/13 06:30:43;;;;;;;15.18;6.80;;;;;;;;;;5029775;28;20124;-85
2022/04/13 06:33:10;;;;;;;14.40;6.97;;;;;;;;;;5031334;28;20076;-80
2022/04/13 06:35:36;;;;;;;11.90;6.63;;;;;;;;;;5031251;28;20049;-85
2022/04/13 06:38:03;;;;;;;12.15;6.60;;;;;;;;;;5034830;28;20116;-75
2022/04/13 06:40:29;;;;;;;13.73;6.60;;;;;;;;;;5051543;28;20405;-75
2022/04/13 06:42:56;;;;;;;14.32;6.65;;;;;;;;;;5037499;28;20049;-75
2022/04/13 06:45:23;;;;;;;12.50;7.13;;;;;;;;;;5051547;28;20049;-75
2022/04/13 06:47:50;;;;;;;13.20;6.32;;;;;;;;;;5051173;28;20539;-77
2022/04/13 06:50:16;;;;;;;12.88;7.10;;;;;;;;;;5049994;28;20095;-77
2022/04/13 06:52:44;;;;;;;14.15;8.00;;;;;;;;;;5051333;28;20041;-77
2022/04/13 06:55:10;;;;;;;15.55;6.90;;;;;;;;;;5051490;28;20045;-77
2022/04/13 06:57:37;;;;;;;12.13;7.20;;;;;;;;;;5051153;28;20109;-77
2022/04/13 07:00:08;;;;;;;15.10;6.90;;;;;;;;;;5050059;28;20068;-75
2022/04/13 07:02:35;;;;;;;14.13;6.68;;;;;;;;;;5051065;28;20080;-75
2022/04/13 07:05:21;;;;;;;;;;;;;;;;;;5051634;28;20059;-75
2022/04/13 07:07:48;;;;;;;14.52;6.70;;;;;;;;;;5053749;28;20321;-75
2022/04/13 07:10:14;;;;;;;13.27;5.60;;;;;;;;;;5054896;28;20049;-75
2022/04/13 07:12:42;;;;;;;22.30;6.93;;;;;;;;;;5055024;28;20504;-75
2022/04/13 07:15:08;;;;;;;16.42;7.07;;;;;;;;;;5054784;28;20115;-75
2022/04/13 07:17:35;;;;;;;12.98;5.63;;;;;;;;;;5054787;28;20155;-75
2022/04/13 07:20:02;;;;;;;11.32;6.20;;;;;;;;;;5055075;28;20057;-75
2022/04/13 07:22:28;;;;;;;15.32;6.63;;;;;;;;;;5054879;28;20563;-75
2022/04/13 07:24:54;;;;;;;11.57;6.10;;;;;;;;;;5054749;28;20092;-75
2022/04/13 07:27:21;;;;;;;12.65;6.40;;;;;;;;;;5054650;28;20111;-75
2022/04/13 07:29:47;;;;;;;13.90;5.72;;;;;;;;;;5054444;28;20481;-75
2022/04/13 07:32:14;;;;;;;13.23;6.30;;;;;;;;;;5054427;28;20081;-75
2022/04/13 07:34:40;;;;;;;13.73;5.28;;;;;;;;;;5054409;28;20051;-75
2022/04/13 07:37:06;;;;;;;9.48;5.18;;;;;;;;;;5054565;28;20087;-75
2022/04/13 07:39:34;;;;;;;11.60;5.82;;;;;;;;;;5053361;28;20297;-77
2022/04/13 07:42:00;;;;;;;12.55;5.75;;;;;;;;;;5054295;28;20053;-77
2022/04/13 07:44:26;;;;;;;11.25;5.15;;;;;;;;;;5054583;28;20476;-77
2022/04/13 07:47:16;;;;;;;9.88;5.25;;;;;;;;;;5053933;28;20075;-74
2022/04/13 07:49:45;;;;;;;10.82;4.95;;;;;;;;;;5054499;28;20083;-75
2022/04/13 07:52:11;;;;;;;9.18;4.85;;;;;;;;;;5054270;28;20082;-74
2022/04/13 07:54:38;;;;;;;12.50;5.07;;;;;;;;;;5026640;28;20076;-75
2022/04/13 07:57:07;;;;;;;8.25;4.80;;;;;;;;;;5054365;28;20049;-74
2022/04/13 07:59:34;;;;;;;11.95;5.03;;;;;;;;;;5052701;28;20088;-74
2022/04/13 08:02:02;;;;;;;9.98;5.07;;;;;;;;;;5054146;28;20509;-74
2022/04/13 08:04:28;;;;;;;10.93;4.15;;;;;;;;;;5054006;28;20562;-75
2022/04/13 08:06:55;;;;;;;10.32;4.85;;;;;;;;;;5054166;28;20098;-75
2022/04/13 08:09:22;;;;;;;10.63;4.95;;;;;;;;;;5053986;28;20129;-75
2022/04/13 08:11:52;;;;;;;10.10;5.00;;;;;;;;;;5053783;28;20072;-75
2022/04/13 08:14:19;;;;;;;12.77;4.95;;;;;;;;;;5053765;28;20105;-74
2022/04/13 08:16:46;;;;;;;9.02;4.03;;;;;;;;;;5052533;28;20048;-75
2022/04/13 08:19:13;;;;;;;9.35;3.92;;;;;;;;;;5045512;28;20458;-74
2022/04/13 08:21:39;;;;;;;8.02;3.60;;;;;;;;;;5046780;28;20532;-75
2022/04/13 08:24:05;;;;;;;10.18;3.80;;;;;;;;;;5053555;28;20481;-74
2022/04/13 08:26:32;;;;;;;11.23;3.85;;;;;;;;;;5053738;28;20106;-75
2022/04/13 08:28:59;;;;;;;8.55;3.85;;;;;;;;;;5053574;28;20041;-74
2022/04/13 08:31:25;;;;;;;5.63;3.60;;;;;;;;;;5053378;28;20073;-74
2022/04/13 08:33:52;;;;;;;9.50;3.50;;;;;;;;;;5053617;28;20479;-75
2022/04/13 08:36:18;;;;;;;10.98;3.97;;;;;;;;;;5053597;28;20072;-74
2022/04/13 08:38:45;;;;;;;9.15;3.30;;;;;;;;;;5053438;28;20098;-75
2022/04/13 08:41:14;;;;;;;8.23;3.15;;;;;;;;;;5053166;28;20098;-74
2022/04/13 08:43:51;;;;;;;8.15;3.30;;;;;;;;;;5053412;28;20087;-74
2022/04/13 08:46:21;;;;;;;9.45;2.80;;;;;;;;;;5053268;28;20132;-74
2022/04/13 08:48:50;;;;;;;7.85;3.03;;;;;;;;;;5053253;28;20083;-74
2022/04/13 08:51:18;;;;;;;7.43;2.75;;;;;;;;;;5053339;28;20073;-74
2022/04/13 08:53:47;;;;;;;5.57;2.92;;;;;;;;;;5051681;28;20053;-74
2022/04/13 08:56:16;;;;;;;6.20;2.45;;;;;;;;;;5051857;28;20084;-74
2022/04/13 08:58:51;;;;;;;7.68;3.13;;;;;;;;;;5051762;28;20087;-74
2022/04/13 09:01:44;;;;;;;9.30;3.05;;;;;;;;;;5053067;28;20075;-74
2022/04/13 09:04:10;;;;;;;6.90;3.20;;;;;;;;;;5052381;28;20080;-74
2022/04/13 09:06:38;;;;;;;9.40;3.13;;;;;;;;;;5052746;28;20072;-74
2022/04/13 09:09:08;;;;;;;10.77;3.35;;;;;;;;;;5052924;28;20073;-74
2022/04/13 09:11:38;;;;;;;9.02;3.10;;;;;;;;;;5052542;28;20552;-73
2022/04/13 09:14:06;;;;;;;8.77;3.20;;;;;;;;;;5052692;28;20081;-74
2022/04/13 09:16:32;;;;;;;;;;;;;;;;;;5052712;28;20056;-73
2022/04/13 09:19:01;;;;;;;9.32;3.25;;;;;;;;;;5052824;28;19924;-74
2022/04/13 09:21:29;;;;;;;10.52;3.10;;;;;;;;;;5052622;28;20089;-73
2022/04/13 09:23:56;;;;;;;7.95;3.10;;;;;;;;;;5052267;28;20071;-74
2022/04/13 09:26:24;;;;;;;9.60;2.72;;;;;;;;;;5052673;28;20049;-74
2022/04/13 09:28:50;;;;;;;5.32;2.42;;;;;;;;;;5052302;28;20068;-74
2022/04/13 09:31:16;;;;;;;9.00;3.00;;;;;;;;;;5051887;28;20437;-73
2022/04/13 09:33:43;;;;;;;6.65;2.58;;;;;;;;;;5052130;28;20505;-73
2022/04/13 09:36:09;;;;;;;5.18;2.17;;;;;;;;;;5052120;28;20132;-74
2022/04/13 09:38:36;;;;;;;6.05;2.10;;;;;;;;;;5052205;28;20163;-74
2022/04/13 09:41:06;;;;;;;7.45;2.47;;;;;;;;;;5024497;28;20076;-73
2022/04/13 09:43:33;;;;;;;5.20;2.38;;;;;;;;;;5052410;28;20083;-73
2022/04/13 09:45:59;;;;;;;5.70;2.10;;;;;;;;;;5052075;28;20111;-74
2022/04/13 09:48:28;;;;;;;5.88;1.90;;;;;;;;;;5051973;28;20332;-74
2022/04/13 09:50:58;;;;;;;6.05;1.95;;;;;;;;;;5052086;28;20449;-74
2022/04/13 09:53:25;;;;;;;6.70;1.83;;;;;;;;;;5051955;28;20501;-74
2022/04/13 09:55:53;;;;;;;6.93;2.05;;;;;;;;;;5052092;28;20072;-74
2022/04/13 09:58:20;;;;;;;5.68;1.90;;;;;;;;;;5051747;28;20555;-75
2022/04/13 10:00:47;;;;;;;6.97;2.30;;;;;;;;;;5051970;28;20135;-74
2022/04/13 10:03:18;;;;;;;7.28;2.08;;;;;;;;;;5051693;28;20524;-74
2022/04/13 10:05:46;;;;;;;5.00;1.92;;;;;;;;;;5051983;28;20057;-74
2022/04/13 10:08:13;;;;;;;5.90;2.15;;;;;;;;;;5051611;28;20080;-74
2022/04/13 10:10:45;;;;;;;4.10;1.58;;;;;;;;;;5051560;28;20508;-74
2022/04/13 10:13:29;;;;;;;6.72;1.90;;;;;;;;;;5051871;28;20067;-74
2022/04/13 10:15:57;;;;;;;4.90;2.10;;;;;;;;;;5051878;28;20045;-74
2022/04/13 10:18:23;;;;;;;6.50;1.70;;;;;;;;;;5051853;28;20382;-74
2022/04/13 10:20:50;;;;;;;5.60;2.13;;;;;;;;;;5051621;28;20084;-74
2022/04/13 10:23:16;;;;;;;5.90;2.10;;;;;;;;;;5051513;28;20524;-74
2022/04/13 10:25:43;;;;;;;6.50;2.00;;;;;;;;;;5051746;28;20080;-74
2022/04/13 10:28:12;;;;;;;4.40;1.50;;;;;;;;;;5051648;28;20049;-74
2022/04/13 10:30:40;;;;;;;5.65;1.80;;;;;;;;;;5051283;28;20089;-74
2022/04/13 10:33:08;;;;;;;3.80;1.48;;;;;;;;;;5051554;28;20071;-74
2022/04/13 10:35:39;;;;;;;5.90;1.85;;;;;;;;;;5051454;28;20073;-74
2022/04/13 10:38:06;;;;;;;4.68;1.50;;;;;;;;;;5051390;28;20084;-74
2022/04/13 10:40:33;;;;;;;5.80;1.75;;;;;;;;;;5051618;28;20049;-74
2022/04/13 10:43:01;;;;;;;8.95;1.70;;;;;;;;;;5054831;28;20401;-74
2022/04/13 10:45:29;;;;;;;3.38;1.40;;;;;;;;;;5055529;28;20049;-74
2022/04/13 10:48:03;;;;;;;6.82;1.92;;;;;;;;;;5055376;28;20103;-74
2022/04/13 10:50:33;;;;;;;6.45;1.80;;;;;;;;;;5055274;28;20500;-74
2022/04/13 10:53:06;;;;;;;7.45;2.35;;;;;;;;;;5055158;28;20079;-74
2022/04/13 10:55:34;;;;;;;4.93;1.77;;;;;;;;;;5055717;28;20102;-74
2022/04/13 10:58:04;;;;;;;5.82;1.92;;;;;;;;;;5055254;28;20091;-74
2022/04/13 11:00:34;;;;;;;5.07;2.15;;;;;;;;;;5043214;28;20100;-74
2022/04/13 11:03:05;;;;;;;5.88;2.05;;;;;;;;;;5053976;28;20087;-74
2022/04/13 11:05:32;;;;;;;5.60;1.88;;;;;;;;;;5055104;28;20059;-74
2022/04/13 11:08:09;;;;;;;7.72;2.53;;;;;;;;;;5055288;28;20055;-74
2022/04/13 11:10:36;;;;;;;6.45;2.28;;;;;;;;;;5054955;28;20084;-74
2022/04/13 11:13:03;;;;;;;5.83;2.40;;;;;;;;;;5055324;28;20126;-74
2022/04/13 11:15:30;;;;;;;;;;;;;;;;;;5055333;28;20099;-74
2022/04/13 11:18:06;;;;;;;7.30;2.47;;;;;;;;;;5055123;28;19920;-74
2022/04/13 11:20:33;;;;;;;4.28;2.22;;;;;;;;;;5054898;28;20057;-74
2022/04/13 11:23:06;;;;;;;5.95;2.20;;;;;;;;;;5055012;28;20049;-74
2022/04/13 11:25:51;;;;;;;7.30;2.45;;;;;;;;;;5054894;28;20060;-74
2022/04/13 11:28:24;;;;;;;3.83;1.67;;;;;;;;;;5054647;28;20056;-74
2022/04/13 11:31:10;;;;;;;6.03;1.83;;;;;;;;;;5054806;28;20044;-75
2022/04/13 11:33:55;;;;;;;5.03;1.35;;;;;;;;;;5054496;28;20488;-72
2022/04/13 11:36:24;;;;;;;5.40;1.70;;;;;;;;;;5054860;28;20099;-71
2022/04/13 11:39:11;;;;;;;5.07;1.60;;;;;;;;;;5054454;28;20059;-70
2022/04/13 11:41:48;;;;;;;4.75;1.33;;;;;;;;;;5054667;28;20096;-71
2022/04/13 11:44:15;;;;;;;3.50;1.40;;;;;;;;;;5054638;28;20083;-71
2022/04/13 11:46:43;;;;;;;4.05;1.95;;;;;;;;;;5054028;28;20100;-72
2022/04/13 11:49:10;;;;;;;4.13;1.73;;;;;;;;;;5054417;28;20059;-72
2022/04/13 11:51:37;;;;;;;5.85;1.70;;;;;;;;;;5053053;28;20076;-71
2022/04/13 11:54:10;;;;;;;2.65;1.42;;;;;;;;;;5053830;28;20049;-72
2022/04/13 11:56:38;;;;;;;5.35;1.52;;;;;;;;;;5054165;28;20045;-72
2022/04/13 11:59:06;;;;;;;5.93;2.08;;;;;;;;;;5053952;28;20132;-72
2022/04/13 12:01:33;;;;;;;4.10;1.40;;;;;;;;;;5054290;28;20053;-71
2022/04/13 12:04:04;;;;;;;3.80;1.48;;;;;;;;;;5054253;28;20056;-71
2022/04/13 12:06:31;;;;;;;4.38;1.98;;;;;;;;;;5053798;28;20554;-71
2022/04/13 12:08:58;;;;;;;5.93;1.60;;;;;;;;;;5053852;28;20473;-71
2022/04/13 12:11:37;;;;;;;3.38;1.65;;;;;;;;;;5053672;28;20132;-71
2022/04/13 12:14:04;;;;;;;3.33;2.00;;;;;;;;;;5054044;28;20466;-71
2022/04/13 12:16:34;;;;;;;4.63;1.80;;;;;;;;;;5053524;28;20524;-71
2022/04/13 12:19:02;;;;;;;5.72;2.20;;;;;;;;;;5053721;28;20052;-71
2022/04/13 12:21:28;;;;;;;;;;;;;;;;;;5053990;28;20558;-71
2022/04/13 12:23:55;;;;;;;4.85;2.10;;;;;;;;;;5053469;28;19947;-71
2022/04/13 12:26:30;;;;;;;3.78;1.95;;;;;;;;;;5053451;28;20048;-71
2022/04/13 12:28:57;;;;;;;5.10;1.70;;;;;;;;;;5053956;28;20049;-71
2022/04/13 12:31:27;;;;;;;5.03;2.00;;;;;;;;;;5053544;28;20492;-71
2022/04/13 12:33:59;;;;;;;5.03;2.10;;;;;;;;;;5053472;28;20132;-71
2022/04/13 12:36:25;;;;;;;5.80;2.50;;;;;;;;;;5053546;28;20048;-71
2022/04/13 12:38:54;;;;;;;7.10;2.05;;;;;;;;;;5053190;28;20076;-71
2022/04/13 12:41:22;;;;;;;3.38;2.10;;;;;;;;;;5053471;28;20044;-71
2022/04/13 12:43:54;;;;;;;4.57;1.83;;;;;;;;;;5053465;28;20080;-71
2022/04/13 12:46:21;;;;;;;5.78;2.17;;;;;;;;;;5052049;28;20064;-71
2022/04/13 12:48:50;;;;;;;7.35;2.90;;;;;;;;;;5053136;28;20068;-71
2022/04/13 12:51:16;;;;;;;3.97;2.58;;;;;;;;;;5051903;28;20076;-71
2022/04/13 12:53:54;;;;;;;5.05;3.05;;;;;;;;;;5053160;28;20052;-71
2022/04/13 12:56:22;;;;;;;5.78;3.53;;;;;;;;;;5053107;28;20501;-71
2022/04/13 12:58:49;;;;;;;;;;;;;;;;;;5053438;28;20461;-71
2022/04/13 13:01:34;;;;;;;5.45;3.60;;;;;;;;;;5048403;28;19972;-71
2022/04/13 13:04:07;;;;;;;6.22;2.40;;;;;;;;;;5045372;28;20447;-71
2022/04/13 13:06:34;;;;;;;6.47;2.75;;;;;;;;;;5053030;28;20088;-72
2022/04/13 13:09:02;;;;;;;4.77;2.07;;;;;;;;;;5052831;28;20080;-72
2022/04/13 13:11:33;;;;;;;5.00;2.20;;;;;;;;;;5052459;28;20312;-72
2022/04/13 13:14:08;;;;;;;5.30;2.30;;;;;;;;;;5052627;28;20084;-72
2022/04/13 13:16:45;;;;;;;5.18;2.42;;;;;;;;;;5052434;28;20132;-70
2022/04/13 13:19:11;;;;;;;6.47;2.40;;;;;;;;;;5052513;28;20128;-70
2022/04/13 13:21:56;;;;;;;5.43;2.22;;;;;;;;;;5052730;28;20095;-70
2022/04/13 13:24:26;;;;;;;5.07;2.17;;;;;;;;;;5052500;28;20095;-70
2022/04/13 13:26:53;;;;;;;6.50;2.95;;;;;;;;;;5052573;28;20118;-70
2022/04/13 13:29:19;;;;;;;8.13;2.70;;;;;;;;;;5052541;28;20488;-70
2022/04/13 13:31:46;;;;;;;6.25;2.70;;;;;;;;;;5052485;28;20135;-70
2022/04/13 13:34:20;;;;;;;8.90;2.85;;;;;;;;;;5052198;28;20504;-70
2022/04/13 13:36:58;;;;;;;5.10;2.65;;;;;;;;;;5052536;28;20084;-70
2022/04/13 13:39:24;;;;;;;6.63;2.88;;;;;;;;;;5052506;28;20473;-70
2022/04/13 13:42:00;;;;;;;4.93;2.70;;;;;;;;;;5052069;28;20049;-70
2022/04/13 13:44:27;;;;;;;5.57;2.22;;;;;;;;;;5052434;28;20080;-70
2022/04/13 13:46:53;;;;;;;7.10;2.47;;;;;;;;;;5052105;28;20098;-70
2022/04/13 13:49:20;;;;;;;7.32;2.60;;;;;;;;;;5052222;28;20091;-70
2022/04/13 13:51:48;;;;;;;6.43;2.88;;;;;;;;;;5052072;28;20084;-70
2022/04/13 13:54:14;;;;;;;5.97;2.70;;;;;;;;;;5051959;28;20136;-70
2022/04/13 13:56:41;;;;;;;8.15;3.50;;;;;;;;;;5051861;28;20128;-70
2022/04/13 13:59:07;;;;;;;5.60;3.20;;;;;;;;;;5051742;28;20481;-70
2022/04/13 14:01:34;;;;;;;9.30;3.42;;;;;;;;;;5051913;28;20096;-70
2022/04/13 14:04:01;;;;;;;8.23;2.70;;;;;;;;;;5052017;28;20049;-70
2022/04/13 14:06:27;;;;;;;5.63;2.60;;;;;;;;;;5051930;28;20099;-69
2022/04/13 14:08:54;;;;;;;9.40;3.20;;;;;;;;;;5051879;28;20084;-70
2022/04/13 14:11:22;;;;;;;8.32;2.40;;;;;;;;;;5051478;28;20132;-70
2022/04/13 14:13:49;;;;;;;5.13;2.70;;;;;;;;;;5051923;28;20496;-70
2022/04/13 14:16:19;;;;;;;8.15;2.63;;;;;;;;;;5051404;28;20131;-70
2022/04/13 14:18:45;;;;;;;7.80;2.33;;;;;;;;;;5051467;28;20511;-70
2022/04/13 14:21:12;;;;;;;7.45;2.95;;;;;;;;;;5051830;28;20080;-69
2022/04/13 14:23:38;;;;;;;7.13;3.20;;;;;;;;;;5051462;28;20494;-70
2022/04/13 14:26:05;;;;;;;7.22;2.97;;;;;;;;;;5050256;28;20052;-70
2022/04/13 14:28:31;;;;;;;5.97;2.70;;;;;;;;;;5051421;28;20485;-70
2022/04/13 14:30:58;;;;;;;6.28;2.70;;;;;;;;;;5051714;28;20080;-70
2022/04/13 14:33:24;;;;;;;7.57;3.13;;;;;;;;;;5051486;28;20076;-70
2022/04/13 14:35:51;;;;;;;5.18;2.65;;;;;;;;;;5050081;28;20091;-70
2022/04/13 14:38:17;;;;;;;6.30;2.53;;;;;;;;;;5051667;28;20084;-70
2022/04/13 14:40:44;;;;;;;3.63;2.67;;;;;;;;;;5051292;28;20124;-73
2022/04/13 14:43:10;;;;;;;6.97;3.03;;;;;;;;;;5051514;28;20086;-73